sensor_id;sensor_type;location;lat;lon;timestamp;P1;durP1;ratioP1;P2;durP2;ratioP2
34234;SDS011;20500;49.856;20.290;2022-10-03T00:00:23;11.50;;;4.00;;
34234;SDS011;20500;49.856;20.290;2022-10-03T00:03:31;11.00;;;4.10;;
34234;SDS011;20500;49.856;20.290;2022-10-03T00:06:49;12.50;;;4.40;;
34234;SDS011;20500;49.856;20.290;2022-10-03T00:10:07;13.90;;;6.40;;
34234;SDS011;20500;49.856;20.290;2022-10-03T00:13:22;13.50;;;5.70;;
34234;SDS011;20500;49.856;20.290;2022-10-03T00:16:37;12.30;;;4.40;;
34234;SDS011;20500;49.856;20.290;2022-10-03T00:19:53;13.50;;;5.20;;
34234;SDS011;20500;49.856;20.290;2022-10-03T00:23:07;11.60;;;5.30;;
34234;SDS011;20500;49.856;20.290;2022-10-03T00:26:22;13.80;;;6.50;;
34234;SDS011;20500;49.856;20.290;2022-10-03T00:29:55;12.30;;;4.40;;
34234;SDS011;20500;49.856;20.290;2022-10-03T00:33:18;11.40;;;5.10;;
34234;SDS011;20500;49.856;20.290;2022-10-03T00:36:35;12.30;;;4.20;;
34234;SDS011;20500;49.856;20.290;2022-10-03T00:39:55;12.80;;;4.20;;
34234;SDS011;20500;49.856;20.290;2022-10-03T00:43:36;10.60;;;3.90;;
34234;SDS011;20500;49.856;20.290;2022-10-03T00:47:04;11.20;;;4.30;;
34234;SDS011;20500;49.856;20.290;2022-10-03T00:50:25;10.70;;;4.40;;
34234;SDS011;20500;49.856;20.290;2022-10-03T00:53:49;13.90;;;5.30;;
34234;SDS011;20500;49.856;20.290;2022-10-03T00:57:10;11.80;;;5.20;;
34234;SDS011;20500;49.856;20.290;2022-10-03T01:00:32;12.20;;;4.30;;
34234;SDS011;20500;49.856;20.290;2022-10-03T01:03:40;13.70;;;4.30;;
34234;SDS011;20500;49.856;20.290;2022-10-03T01:07:00;12.20;;;4.10;;
34234;SDS011;20500;49.856;20.290;2022-10-03T01:10:17;11.20;;;4.00;;
34234;SDS011;20500;49.856;20.290;2022-10-03T01:13:29;13.80;;;5.80;;
34234;SDS011;20500;49.856;20.290;2022-10-03T01:16:49;12.30;;;4.40;;
34234;SDS011;20500;49.856;20.290;2022-10-03T01:20:08;10.50;;;4.50;;
34234;SDS011;20500;49.856;20.290;2022-10-03T01:27:04;15.40;;;6.20;;
34234;SDS011;20500;49.856;20.290;2022-10-03T01:30:15;11.20;;;4.00;;
34234;SDS011;20500;49.856;20.290;2022-10-03T01:33:29;12.40;;;3.60;;
34234;SDS011;20500;49.856;20.290;2022-10-03T01:36:40;13.40;;;5.00;;
34234;SDS011;20500;49.856;20.290;2022-10-03T01:39:54;12.30;;;5.10;;
34234;SDS011;20500;49.856;20.290;2022-10-03T01:43:10;10.80;;;3.70;;
34234;SDS011;20500;49.856;20.290;2022-10-03T01:46:23;10.40;;;3.60;;
34234;SDS011;20500;49.856;20.290;2022-10-03T01:49:40;13.50;;;4.80;;
34234;SDS011;20500;49.856;20.290;2022-10-03T01:52:52;12.90;;;6.00;;
34234;SDS011;20500;49.856;20.290;2022-10-03T01:56:07;11.20;;;3.30;;
34234;SDS011;20500;49.856;20.290;2022-10-03T01:59:21;11.40;;;4.80;;
34234;SDS011;20500;49.856;20.290;2022-10-03T02:02:35;12.40;;;4.80;;
34234;SDS011;20500;49.856;20.290;2022-10-03T02:05:52;12.80;;;4.80;;
34234;SDS011;20500;49.856;20.290;2022-10-03T02:09:04;12.50;;;5.30;;
34234;SDS011;20500;49.856;20.290;2022-10-03T02:12:21;11.50;;;3.90;;
34234;SDS011;20500;49.856;20.290;2022-10-03T02:15:33;9.60;;;3.20;;
34234;SDS011;20500;49.856;20.290;2022-10-03T02:18:53;11.50;;;3.60;;
34234;SDS011;20500;49.856;20.290;2022-10-03T02:22:12;11.40;;;4.30;;
34234;SDS011;20500;49.856;20.290;2022-10-03T02:25:40;9.90;;;4.00;;
34234;SDS011;20500;49.856;20.290;2022-10-03T02:36:33;12.60;;;4.00;;
34234;SDS011;20500;49.856;20.290;2022-10-03T02:39:55;12.50;;;5.00;;
34234;SDS011;20500;49.856;20.290;2022-10-03T02:43:22;11.60;;;4.20;;
34234;SDS011;20500;49.856;20.290;2022-10-03T02:50:31;11.90;;;5.20;;
34234;SDS011;20500;49.856;20.290;2022-10-03T02:54:18;11.20;;;4.80;;
34234;SDS011;20500;49.856;20.290;2022-10-03T03:05:09;12.70;;;4.50;;
34234;SDS011;20500;49.856;20.290;2022-10-03T03:08:50;10.30;;;4.10;;
34234;SDS011;20500;49.856;20.290;2022-10-03T03:22:51;11.30;;;5.10;;
34234;SDS011;20500;49.856;20.290;2022-10-03T03:29:57;12.50;;;4.20;;
34234;SDS011;20500;49.856;20.290;2022-10-03T03:33:11;12.30;;;4.40;;
34234;SDS011;20500;49.856;20.290;2022-10-03T03:36:31;11.20;;;4.40;;
34234;SDS011;20500;49.856;20.290;2022-10-03T03:39:46;13.10;;;4.70;;
34234;SDS011;20500;49.856;20.290;2022-10-03T03:46:43;13.80;;;4.60;;
34234;SDS011;20500;49.856;20.290;2022-10-03T03:50:04;12.80;;;4.00;;
34234;SDS011;20500;49.856;20.290;2022-10-03T03:53:42;10.90;;;4.00;;
34234;SDS011;20500;49.856;20.290;2022-10-03T03:57:11;11.60;;;4.70;;
34234;SDS011;20500;49.856;20.290;2022-10-03T04:00:37;12.40;;;3.90;;
34234;SDS011;20500;49.856;20.290;2022-10-03T04:04:00;11.50;;;3.90;;
34234;SDS011;20500;49.856;20.290;2022-10-03T04:07:24;14.30;;;4.60;;
34234;SDS011;20500;49.856;20.290;2022-10-03T04:10:44;13.70;;;4.70;;
34234;SDS011;20500;49.856;20.290;2022-10-03T04:14:07;12.10;;;4.20;;
34234;SDS011;20500;49.856;20.290;2022-10-03T04:17:34;13.00;;;5.40;;
34234;SDS011;20500;49.856;20.290;2022-10-03T04:21:13;15.30;;;5.20;;
34234;SDS011;20500;49.856;20.290;2022-10-03T04:24:45;12.70;;;4.40;;
34234;SDS011;20500;49.856;20.290;2022-10-03T04:28:29;13.50;;;4.90;;
34234;SDS011;20500;49.856;20.290;2022-10-03T04:31:51;11.10;;;3.90;;
34234;SDS011;20500;49.856;20.290;2022-10-03T04:35:23;11.20;;;4.00;;
34234;SDS011;20500;49.856;20.290;2022-10-03T04:38:52;13.20;;;3.80;;
34234;SDS011;20500;49.856;20.290;2022-10-03T04:42:09;12.90;;;4.10;;
34234;SDS011;20500;49.856;20.290;2022-10-03T04:45:26;15.50;;;3.90;;
34234;SDS011;20500;49.856;20.290;2022-10-03T04:48:44;10.90;;;4.00;;
34234;SDS011;20500;49.856;20.290;2022-10-03T04:51:56;10.50;;;4.00;;
34234;SDS011;20500;49.856;20.290;2022-10-03T04:55:06;12.50;;;4.20;;
34234;SDS011;20500;49.856;20.290;2022-10-03T04:58:29;12.20;;;3.60;;
34234;SDS011;20500;49.856;20.290;2022-10-03T05:01:42;11.30;;;3.90;;
34234;SDS011;20500;49.856;20.290;2022-10-03T05:08:34;12.70;;;4.60;;
34234;SDS011;20500;49.856;20.290;2022-10-03T05:11:52;11.20;;;4.20;;
34234;SDS011;20500;49.856;20.290;2022-10-03T05:15:10;12.50;;;4.50;;
34234;SDS011;20500;49.856;20.290;2022-10-03T05:18:26;11.60;;;3.90;;
34234;SDS011;20500;49.856;20.290;2022-10-03T05:21:43;12.70;;;3.80;;
34234;SDS011;20500;49.856;20.290;2022-10-03T05:24:59;11.70;;;4.40;;
34234;SDS011;20500;49.856;20.290;2022-10-03T05:28:16;15.10;;;4.20;;
34234;SDS011;20500;49.856;20.290;2022-10-03T05:31:30;10.80;;;4.10;;
34234;SDS011;20500;49.856;20.290;2022-10-03T05:34:54;11.30;;;4.20;;
34234;SDS011;20500;49.856;20.290;2022-10-03T05:38:14;11.60;;;4.20;;
34234;SDS011;20500;49.856;20.290;2022-10-03T05:41:30;10.10;;;3.30;;
34234;SDS011;20500;49.856;20.290;2022-10-03T05:44:41;9.80;;;3.60;;
34234;SDS011;20500;49.856;20.290;2022-10-03T05:47:50;12.50;;;3.60;;
34234;SDS011;20500;49.856;20.290;2022-10-03T05:51:10;9.60;;;3.30;;
34234;SDS011;20500;49.856;20.290;2022-10-03T05:54:52;11.60;;;3.10;;
34234;SDS011;20500;49.856;20.290;2022-10-03T06:01:54;10.60;;;3.50;;
34234;SDS011;20500;49.856;20.290;2022-10-03T06:05:21;10.30;;;3.50;;
34234;SDS011;20500;49.856;20.290;2022-10-03T06:12:00;13.40;;;4.40;;
34234;SDS011;20500;49.856;20.290;2022-10-03T06:15:22;12.70;;;3.70;;
34234;SDS011;20500;49.856;20.290;2022-10-03T06:18:58;10.90;;;3.00;;
34234;SDS011;20500;49.856;20.290;2022-10-03T06:22:23;13.00;;;3.40;;
34234;SDS011;20500;49.856;20.290;2022-10-03T06:29:44;9.40;;;2.90;;
34234;SDS011;20500;49.856;20.290;2022-10-03T06:33:26;11.40;;;3.30;;
34234;SDS011;20500;49.856;20.290;2022-10-03T06:37:00;12.80;;;2.80;;
34234;SDS011;20500;49.856;20.290;2022-10-03T06:44:13;11.00;;;3.00;;
34234;SDS011;20500;49.856;20.290;2022-10-03T06:47:47;9.00;;;2.60;;
34234;SDS011;20500;49.856;20.290;2022-10-03T06:58:41;10.00;;;2.90;;
34234;SDS011;20500;49.856;20.290;2022-10-03T07:20:28;10.00;;;2.80;;
34234;SDS011;20500;49.856;20.290;2022-10-03T07:24:04;10.80;;;2.70;;
34234;SDS011;20500;49.856;20.290;2022-10-03T07:27:25;12.00;;;2.60;;
34234;SDS011;20500;49.856;20.290;2022-10-03T07:30:57;10.60;;;2.90;;
34234;SDS011;20500;49.856;20.290;2022-10-03T07:34:21;10.80;;;2.60;;
34234;SDS011;20500;49.856;20.290;2022-10-03T07:37:56;12.60;;;2.40;;
34234;SDS011;20500;49.856;20.290;2022-10-03T07:41:56;11.80;;;2.80;;
34234;SDS011;20500;49.856;20.290;2022-10-03T07:45:23;10.20;;;2.70;;
34234;SDS011;20500;49.856;20.290;2022-10-03T07:48:55;11.50;;;3.30;;
34234;SDS011;20500;49.856;20.290;2022-10-03T07:52:27;11.80;;;2.90;;
34234;SDS011;20500;49.856;20.290;2022-10-03T07:56:00;9.60;;;2.50;;
34234;SDS011;20500;49.856;20.290;2022-10-03T08:06:32;16.10;;;3.20;;
34234;SDS011;20500;49.856;20.290;2022-10-03T08:09:48;9.10;;;2.60;;
34234;SDS011;20500;49.856;20.290;2022-10-03T08:16:42;8.90;;;2.70;;
34234;SDS011;20500;49.856;20.290;2022-10-03T08:20:30;8.90;;;2.20;;
34234;SDS011;20500;49.856;20.290;2022-10-03T08:27:43;10.50;;;2.70;;
34234;SDS011;20500;49.856;20.290;2022-10-03T08:31:23;10.50;;;2.60;;
34234;SDS011;20500;49.856;20.290;2022-10-03T08:42:32;12.00;;;2.80;;
34234;SDS011;20500;49.856;20.290;2022-10-03T08:46:01;8.70;;;2.60;;
34234;SDS011;20500;49.856;20.290;2022-10-03T08:49:46;11.30;;;2.90;;
34234;SDS011;20500;49.856;20.290;2022-10-03T08:53:18;9.60;;;2.40;;
34234;SDS011;20500;49.856;20.290;2022-10-03T09:00:29;10.60;;;2.70;;
34234;SDS011;20500;49.856;20.290;2022-10-03T09:04:05;9.30;;;2.60;;
34234;SDS011;20500;49.856;20.290;2022-10-03T09:07:37;10.40;;;2.40;;
34234;SDS011;20500;49.856;20.290;2022-10-03T09:11:15;11.30;;;3.00;;
34234;SDS011;20500;49.856;20.290;2022-10-03T09:15:05;10.60;;;2.50;;
34234;SDS011;20500;49.856;20.290;2022-10-03T09:18:26;11.00;;;3.10;;
34234;SDS011;20500;49.856;20.290;2022-10-03T09:21:58;8.80;;;2.50;;
34234;SDS011;20500;49.856;20.290;2022-10-03T09:25:22;9.20;;;2.70;;
34234;SDS011;20500;49.856;20.290;2022-10-03T09:28:44;13.10;;;3.60;;
34234;SDS011;20500;49.856;20.290;2022-10-03T09:32:13;9.00;;;2.60;;
34234;SDS011;20500;49.856;20.290;2022-10-03T09:35:50;10.80;;;2.60;;
34234;SDS011;20500;49.856;20.290;2022-10-03T09:39:30;8.10;;;2.40;;
34234;SDS011;20500;49.856;20.290;2022-10-03T09:43:10;10.70;;;2.90;;
34234;SDS011;20500;49.856;20.290;2022-10-03T09:46:48;7.60;;;2.20;;
34234;SDS011;20500;49.856;20.290;2022-10-03T09:58:10;11.60;;;4.60;;
34234;SDS011;20500;49.856;20.290;2022-10-03T10:01:33;9.40;;;3.50;;
34234;SDS011;20500;49.856;20.290;2022-10-03T10:04:50;5.70;;;2.20;;
34234;SDS011;20500;49.856;20.290;2022-10-03T10:08:12;5.80;;;2.00;;
34234;SDS011;20500;49.856;20.290;2022-10-03T10:11:46;9.40;;;2.20;;
34234;SDS011;20500;49.856;20.290;2022-10-03T10:15:26;7.70;;;2.20;;
34234;SDS011;20500;49.856;20.290;2022-10-03T10:26:16;6.50;;;2.40;;
34234;SDS011;20500;49.856;20.290;2022-10-03T10:33:38;8.30;;;2.30;;
34234;SDS011;20500;49.856;20.290;2022-10-03T10:37:29;12.00;;;4.80;;
34234;SDS011;20500;49.856;20.290;2022-10-03T10:44:51;14.10;;;4.70;;
34234;SDS011;20500;49.856;20.290;2022-10-03T10:52:11;7.50;;;2.40;;
34234;SDS011;20500;49.856;20.290;2022-10-03T10:55:38;7.40;;;2.20;;
34234;SDS011;20500;49.856;20.290;2022-10-03T10:59:20;7.40;;;2.60;;
34234;SDS011;20500;49.856;20.290;2022-10-03T11:06:39;8.20;;;2.50;;
34234;SDS011;20500;49.856;20.290;2022-10-03T11:25:09;8.20;;;2.40;;
34234;SDS011;20500;49.856;20.290;2022-10-03T11:32:50;7.90;;;2.40;;
34234;SDS011;20500;49.856;20.290;2022-10-03T11:40:02;6.50;;;2.20;;
34234;SDS011;20500;49.856;20.290;2022-10-03T11:47:14;5.90;;;2.20;;
34234;SDS011;20500;49.856;20.290;2022-10-03T11:50:32;6.30;;;2.20;;
34234;SDS011;20500;49.856;20.290;2022-10-03T11:53:48;8.60;;;2.50;;
34234;SDS011;20500;49.856;20.290;2022-10-03T11:57:23;7.60;;;2.50;;
34234;SDS011;20500;49.856;20.290;2022-10-03T12:00:34;7.10;;;2.20;;
34234;SDS011;20500;49.856;20.290;2022-10-03T12:03:45;7.30;;;2.30;;
34234;SDS011;20500;49.856;20.290;2022-10-03T12:07:02;7.40;;;2.30;;
34234;SDS011;20500;49.856;20.290;2022-10-03T12:10:35;8.60;;;2.70;;
34234;SDS011;20500;49.856;20.290;2022-10-03T12:17:26;9.00;;;2.90;;
34234;SDS011;20500;49.856;20.290;2022-10-03T12:20:41;8.40;;;2.80;;
34234;SDS011;20500;49.856;20.290;2022-10-03T12:24:20;8.50;;;2.60;;
34234;SDS011;20500;49.856;20.290;2022-10-03T12:27:34;9.70;;;3.10;;
34234;SDS011;20500;49.856;20.290;2022-10-03T12:30:48;8.10;;;2.60;;
34234;SDS011;20500;49.856;20.290;2022-10-03T12:34:00;7.70;;;2.80;;
34234;SDS011;20500;49.856;20.290;2022-10-03T12:37:25;9.50;;;3.00;;
34234;SDS011;20500;49.856;20.290;2022-10-03T12:40:42;7.30;;;2.90;;
34234;SDS011;20500;49.856;20.290;2022-10-03T12:44:02;6.50;;;1.90;;
34234;SDS011;20500;49.856;20.290;2022-10-03T12:47:28;6.10;;;1.70;;
34234;SDS011;20500;49.856;20.290;2022-10-03T12:50:59;5.70;;;1.90;;
34234;SDS011;20500;49.856;20.290;2022-10-03T12:54:14;6.20;;;1.90;;
34234;SDS011;20500;49.856;20.290;2022-10-03T12:57:49;7.90;;;2.30;;
34234;SDS011;20500;49.856;20.290;2022-10-03T13:01:14;10.20;;;3.40;;
34234;SDS011;20500;49.856;20.290;2022-10-03T13:04:33;8.70;;;2.30;;
34234;SDS011;20500;49.856;20.290;2022-10-03T13:07:46;11.50;;;5.40;;
34234;SDS011;20500;49.856;20.290;2022-10-03T13:10:59;8.60;;;2.70;;
34234;SDS011;20500;49.856;20.290;2022-10-03T13:14:27;5.90;;;1.90;;
34234;SDS011;20500;49.856;20.290;2022-10-03T13:17:46;5.60;;;2.40;;
34234;SDS011;20500;49.856;20.290;2022-10-03T13:21:02;8.50;;;2.50;;
34234;SDS011;20500;49.856;20.290;2022-10-03T13:24:34;11.80;;;5.30;;
34234;SDS011;20500;49.856;20.290;2022-10-03T13:27:45;10.40;;;4.20;;
34234;SDS011;20500;49.856;20.290;2022-10-03T13:30:56;13.90;;;7.20;;
34234;SDS011;20500;49.856;20.290;2022-10-03T13:34:13;10.90;;;4.40;;
34234;SDS011;20500;49.856;20.290;2022-10-03T13:37:24;11.00;;;3.40;;
34234;SDS011;20500;49.856;20.290;2022-10-03T13:40:41;8.60;;;2.20;;
34234;SDS011;20500;49.856;20.290;2022-10-03T13:43:55;8.50;;;3.10;;
34234;SDS011;20500;49.856;20.290;2022-10-03T13:47:09;6.40;;;2.10;;
34234;SDS011;20500;49.856;20.290;2022-10-03T13:50:30;8.30;;;2.40;;
34234;SDS011;20500;49.856;20.290;2022-10-03T13:53:49;9.50;;;3.20;;
34234;SDS011;20500;49.856;20.290;2022-10-03T13:57:04;11.00;;;4.90;;
34234;SDS011;20500;49.856;20.290;2022-10-03T14:00:18;7.90;;;2.50;;
34234;SDS011;20500;49.856;20.290;2022-10-03T14:03:27;7.50;;;2.40;;
34234;SDS011;20500;49.856;20.290;2022-10-03T14:06:43;5.90;;;2.20;;
34234;SDS011;20500;49.856;20.290;2022-10-03T14:14:08;8.30;;;2.80;;
34234;SDS011;20500;49.856;20.290;2022-10-03T14:17:47;9.40;;;3.50;;
34234;SDS011;20500;49.856;20.290;2022-10-03T14:21:20;8.40;;;3.30;;
34234;SDS011;20500;49.856;20.290;2022-10-03T14:24:41;6.80;;;2.20;;
34234;SDS011;20500;49.856;20.290;2022-10-03T14:27:57;6.40;;;2.20;;
34234;SDS011;20500;49.856;20.290;2022-10-03T14:31:13;9.10;;;2.80;;
34234;SDS011;20500;49.856;20.290;2022-10-03T14:34:34;9.90;;;2.90;;
34234;SDS011;20500;49.856;20.290;2022-10-03T14:37:49;9.90;;;2.90;;
34234;SDS011;20500;49.856;20.290;2022-10-03T14:41:01;8.40;;;2.50;;
34234;SDS011;20500;49.856;20.290;2022-10-03T14:44:13;10.40;;;3.10;;
34234;SDS011;20500;49.856;20.290;2022-10-03T14:47:23;8.50;;;3.00;;
34234;SDS011;20500;49.856;20.290;2022-10-03T14:50:37;8.30;;;3.20;;
34234;SDS011;20500;49.856;20.290;2022-10-03T14:53:50;8.80;;;2.90;;
34234;SDS011;20500;49.856;20.290;2022-10-03T14:57:11;7.40;;;2.50;;
34234;SDS011;20500;49.856;20.290;2022-10-03T15:00:45;8.70;;;2.90;;
34234;SDS011;20500;49.856;20.290;2022-10-03T15:03:54;9.40;;;3.00;;
34234;SDS011;20500;49.856;20.290;2022-10-03T15:07:05;8.30;;;3.00;;
34234;SDS011;20500;49.856;20.290;2022-10-03T15:10:14;12.10;;;4.00;;
34234;SDS011;20500;49.856;20.290;2022-10-03T15:13:24;13.90;;;5.40;;
34234;SDS011;20500;49.856;20.290;2022-10-03T15:16:37;9.40;;;3.80;;
34234;SDS011;20500;49.856;20.290;2022-10-03T15:19:49;10.80;;;4.40;;
34234;SDS011;20500;49.856;20.290;2022-10-03T15:22:59;11.50;;;4.80;;
34234;SDS011;20500;49.856;20.290;2022-10-03T15:26:08;11.80;;;3.20;;
34234;SDS011;20500;49.856;20.290;2022-10-03T15:29:20;9.90;;;3.10;;
34234;SDS011;20500;49.856;20.290;2022-10-03T15:32:28;11.70;;;4.60;;
34234;SDS011;20500;49.856;20.290;2022-10-03T15:35:40;11.80;;;4.70;;
34234;SDS011;20500;49.856;20.290;2022-10-03T15:38:50;11.80;;;3.60;;
34234;SDS011;20500;49.856;20.290;2022-10-03T15:42:03;9.90;;;4.10;;
34234;SDS011;20500;49.856;20.290;2022-10-03T15:45:25;9.20;;;3.20;;
34234;SDS011;20500;49.856;20.290;2022-10-03T15:48:35;13.60;;;4.60;;
34234;SDS011;20500;49.856;20.290;2022-10-03T15:51:49;13.50;;;4.20;;
34234;SDS011;20500;49.856;20.290;2022-10-03T15:54:57;9.60;;;2.80;;
34234;SDS011;20500;49.856;20.290;2022-10-03T15:58:15;8.50;;;2.70;;
34234;SDS011;20500;49.856;20.290;2022-10-03T16:01:24;9.80;;;3.10;;
34234;SDS011;20500;49.856;20.290;2022-10-03T16:04:33;10.00;;;3.80;;
34234;SDS011;20500;49.856;20.290;2022-10-03T16:07:45;6.90;;;2.70;;
34234;SDS011;20500;49.856;20.290;2022-10-03T16:11:01;8.30;;;3.10;;
34234;SDS011;20500;49.856;20.290;2022-10-03T16:14:13;8.30;;;2.90;;
34234;SDS011;20500;49.856;20.290;2022-10-03T16:17:28;7.50;;;2.30;;
34234;SDS011;20500;49.856;20.290;2022-10-03T16:20:48;9.40;;;3.60;;
34234;SDS011;20500;49.856;20.290;2022-10-03T16:23:58;8.90;;;2.80;;
34234;SDS011;20500;49.856;20.290;2022-10-03T16:27:11;9.50;;;3.50;;
34234;SDS011;20500;49.856;20.290;2022-10-03T16:30:22;10.70;;;3.80;;
34234;SDS011;20500;49.856;20.290;2022-10-03T16:33:31;9.80;;;3.10;;
34234;SDS011;20500;49.856;20.290;2022-10-03T16:36:43;10.50;;;3.50;;
34234;SDS011;20500;49.856;20.290;2022-10-03T16:39:56;10.30;;;3.40;;
34234;SDS011;20500;49.856;20.290;2022-10-03T16:43:05;10.20;;;4.40;;
34234;SDS011;20500;49.856;20.290;2022-10-03T16:46:19;11.80;;;4.20;;
34234;SDS011;20500;49.856;20.290;2022-10-03T16:49:31;8.40;;;3.30;;
34234;SDS011;20500;49.856;20.290;2022-10-03T16:53:00;11.30;;;4.00;;
34234;SDS011;20500;49.856;20.290;2022-10-03T16:56:12;10.60;;;4.80;;
34234;SDS011;20500;49.856;20.290;2022-10-03T16:59:20;10.80;;;4.30;;
34234;SDS011;20500;49.856;20.290;2022-10-03T17:02:28;13.20;;;4.60;;
34234;SDS011;20500;49.856;20.290;2022-10-03T17:05:37;12.30;;;5.00;;
34234;SDS011;20500;49.856;20.290;2022-10-03T17:08:49;12.10;;;5.00;;
34234;SDS011;20500;49.856;20.290;2022-10-03T17:11:58;11.00;;;5.00;;
34234;SDS011;20500;49.856;20.290;2022-10-03T17:15:08;13.20;;;4.70;;
34234;SDS011;20500;49.856;20.290;2022-10-03T17:18:24;11.60;;;4.90;;
34234;SDS011;20500;49.856;20.290;2022-10-03T17:21:34;11.10;;;4.50;;
34234;SDS011;20500;49.856;20.290;2022-10-03T17:24:47;11.30;;;4.70;;
34234;SDS011;20500;49.856;20.290;2022-10-03T17:27:56;12.40;;;5.00;;
34234;SDS011;20500;49.856;20.290;2022-10-03T17:31:13;11.60;;;5.00;;
34234;SDS011;20500;49.856;20.290;2022-10-03T17:34:32;10.90;;;4.60;;
34234;SDS011;20500;49.856;20.290;2022-10-03T17:37:47;11.80;;;4.40;;
34234;SDS011;20500;49.856;20.290;2022-10-03T17:41:05;11.10;;;5.00;;
34234;SDS011;20500;49.856;20.290;2022-10-03T17:44:24;10.90;;;4.70;;
34234;SDS011;20500;49.856;20.290;2022-10-03T17:47:39;12.30;;;4.40;;
34234;SDS011;20500;49.856;20.290;2022-10-03T17:50:56;13.20;;;5.70;;
34234;SDS011;20500;49.856;20.290;2022-10-03T17:54:08;16.80;;;5.90;;
34234;SDS011;20500;49.856;20.290;2022-10-03T17:57:21;13.20;;;5.00;;
34234;SDS011;20500;49.856;20.290;2022-10-03T18:00:32;12.10;;;5.00;;
34234;SDS011;20500;49.856;20.290;2022-10-03T18:03:45;11.50;;;4.40;;
34234;SDS011;20500;49.856;20.290;2022-10-03T18:06:53;11.40;;;4.50;;
34234;SDS011;20500;49.856;20.290;2022-10-03T18:10:06;17.20;;;9.20;;
34234;SDS011;20500;49.856;20.290;2022-10-03T18:13:24;12.10;;;5.10;;
34234;SDS011;20500;49.856;20.290;2022-10-03T18:16:37;12.20;;;4.40;;
34234;SDS011;20500;49.856;20.290;2022-10-03T18:19:55;13.60;;;6.10;;
34234;SDS011;20500;49.856;20.290;2022-10-03T18:23:15;13.80;;;5.10;;
34234;SDS011;20500;49.856;20.290;2022-10-03T18:26:56;11.30;;;4.90;;
34234;SDS011;20500;49.856;20.290;2022-10-03T18:30:15;14.20;;;5.00;;
34234;SDS011;20500;49.856;20.290;2022-10-03T18:33:26;11.60;;;4.50;;
34234;SDS011;20500;49.856;20.290;2022-10-03T18:36:41;12.70;;;5.50;;
34234;SDS011;20500;49.856;20.290;2022-10-03T18:39:49;13.30;;;6.40;;
34234;SDS011;20500;49.856;20.290;2022-10-03T18:42:57;12.80;;;4.60;;
34234;SDS011;20500;49.856;20.290;2022-10-03T18:46:07;12.00;;;4.70;;
34234;SDS011;20500;49.856;20.290;2022-10-03T18:49:19;12.60;;;5.80;;
34234;SDS011;20500;49.856;20.290;2022-10-03T18:52:39;12.80;;;5.90;;
34234;SDS011;20500;49.856;20.290;2022-10-03T18:55:55;57.50;;;51.20;;
34234;SDS011;20500;49.856;20.290;2022-10-03T18:59:13;25.40;;;20.40;;
34234;SDS011;20500;49.856;20.290;2022-10-03T19:02:29;24.40;;;19.40;;
34234;SDS011;20500;49.856;20.290;2022-10-03T19:05:41;29.80;;;20.80;;
34234;SDS011;20500;49.856;20.290;2022-10-03T19:08:52;45.60;;;32.80;;
34234;SDS011;20500;49.856;20.290;2022-10-03T19:12:04;27.60;;;18.20;;
34234;SDS011;20500;49.856;20.290;2022-10-03T19:15:20;21.30;;;13.60;;
34234;SDS011;20500;49.856;20.290;2022-10-03T19:18:41;25.40;;;18.80;;
34234;SDS011;20500;49.856;20.290;2022-10-03T19:21:51;19.00;;;7.70;;
34234;SDS011;20500;49.856;20.290;2022-10-03T19:25:00;20.50;;;13.60;;
34234;SDS011;20500;49.856;20.290;2022-10-03T19:28:12;81.20;;;63.80;;
34234;SDS011;20500;49.856;20.290;2022-10-03T19:31:23;55.10;;;35.50;;
34234;SDS011;20500;49.856;20.290;2022-10-03T19:34:36;67.70;;;42.40;;
34234;SDS011;20500;49.856;20.290;2022-10-03T19:37:45;32.80;;;18.80;;
34234;SDS011;20500;49.856;20.290;2022-10-03T19:40:55;33.80;;;21.60;;
34234;SDS011;20500;49.856;20.290;2022-10-03T19:44:07;16.20;;;8.00;;
34234;SDS011;20500;49.856;20.290;2022-10-03T19:47:18;41.40;;;26.50;;
34234;SDS011;20500;49.856;20.290;2022-10-03T19:50:33;49.30;;;33.10;;
34234;SDS011;20500;49.856;20.290;2022-10-03T19:53:41;16.80;;;8.60;;
34234;SDS011;20500;49.856;20.290;2022-10-03T19:56:49;26.00;;;16.90;;
34234;SDS011;20500;49.856;20.290;2022-10-03T19:59:56;39.30;;;30.20;;
34234;SDS011;20500;49.856;20.290;2022-10-03T20:03:11;12.20;;;5.70;;
34234;SDS011;20500;49.856;20.290;2022-10-03T20:06:23;14.00;;;8.70;;
34234;SDS011;20500;49.856;20.290;2022-10-03T20:09:35;11.30;;;5.90;;
34234;SDS011;20500;49.856;20.290;2022-10-03T20:12:43;12.00;;;6.80;;
34234;SDS011;20500;49.856;20.290;2022-10-03T20:15:55;13.30;;;7.50;;
34234;SDS011;20500;49.856;20.290;2022-10-03T20:19:06;41.50;;;35.00;;
34234;SDS011;20500;49.856;20.290;2022-10-03T20:22:14;21.90;;;14.70;;
34234;SDS011;20500;49.856;20.290;2022-10-03T20:25:22;37.10;;;29.60;;
34234;SDS011;20500;49.856;20.290;2022-10-03T20:28:40;12.20;;;5.70;;
34234;SDS011;20500;49.856;20.290;2022-10-03T20:31:59;25.40;;;18.50;;
34234;SDS011;20500;49.856;20.290;2022-10-03T20:35:10;15.50;;;7.30;;
34234;SDS011;20500;49.856;20.290;2022-10-03T20:38:24;20.60;;;14.20;;
34234;SDS011;20500;49.856;20.290;2022-10-03T20:41:50;13.70;;;7.80;;
34234;SDS011;20500;49.856;20.290;2022-10-03T20:45:02;13.20;;;6.60;;
34234;SDS011;20500;49.856;20.290;2022-10-03T20:48:18;20.10;;;13.30;;
34234;SDS011;20500;49.856;20.290;2022-10-03T20:55:01;16.20;;;9.00;;
34234;SDS011;20500;49.856;20.290;2022-10-03T20:58:13;26.00;;;13.60;;
34234;SDS011;20500;49.856;20.290;2022-10-03T21:01:32;20.20;;;10.20;;
34234;SDS011;20500;49.856;20.290;2022-10-03T21:04:44;18.00;;;9.40;;
34234;SDS011;20500;49.856;20.290;2022-10-03T21:07:56;17.90;;;9.20;;
34234;SDS011;20500;49.856;20.290;2022-10-03T21:11:13;23.20;;;16.10;;
34234;SDS011;20500;49.856;20.290;2022-10-03T21:14:25;14.30;;;8.10;;
34234;SDS011;20500;49.856;20.290;2022-10-03T21:17:36;14.80;;;7.60;;
34234;SDS011;20500;49.856;20.290;2022-10-03T21:20:45;16.50;;;10.00;;
34234;SDS011;20500;49.856;20.290;2022-10-03T21:23:55;13.40;;;6.00;;
34234;SDS011;20500;49.856;20.290;2022-10-03T21:27:06;16.00;;;7.90;;
34234;SDS011;20500;49.856;20.290;2022-10-03T21:30:18;15.40;;;7.10;;
34234;SDS011;20500;49.856;20.290;2022-10-03T21:33:26;17.20;;;9.20;;
34234;SDS011;20500;49.856;20.290;2022-10-03T21:36:38;14.70;;;7.20;;
34234;SDS011;20500;49.856;20.290;2022-10-03T21:39:54;17.00;;;8.00;;
34234;SDS011;20500;49.856;20.290;2022-10-03T21:43:10;16.20;;;7.50;;
34234;SDS011;20500;49.856;20.290;2022-10-03T21:46:31;18.70;;;11.90;;
34234;SDS011;20500;49.856;20.290;2022-10-03T21:49:43;14.70;;;7.20;;
34234;SDS011;20500;49.856;20.290;2022-10-03T21:56:29;13.10;;;6.60;;
34234;SDS011;20500;49.856;20.290;2022-10-03T22:00:00;12.80;;;4.80;;
34234;SDS011;20500;49.856;20.290;2022-10-03T22:03:13;13.80;;;5.30;;
34234;SDS011;20500;49.856;20.290;2022-10-03T22:06:26;14.10;;;5.20;;
34234;SDS011;20500;49.856;20.290;2022-10-03T22:09:43;14.00;;;7.30;;
34234;SDS011;20500;49.856;20.290;2022-10-03T22:12:51;13.20;;;4.50;;
34234;SDS011;20500;49.856;20.290;2022-10-03T22:16:02;11.60;;;4.50;;
34234;SDS011;20500;49.856;20.290;2022-10-03T22:19:26;10.90;;;4.20;;
34234;SDS011;20500;49.856;20.290;2022-10-03T22:22:41;11.90;;;5.50;;
34234;SDS011;20500;49.856;20.290;2022-10-03T22:26:01;11.90;;;4.30;;
34234;SDS011;20500;49.856;20.290;2022-10-03T22:29:15;14.10;;;5.00;;